Time;durP1;ratioP1;P1;durP2;ratioP2;P2;SDS_P1;SDS_P2;PMS_P1;PMS_P2;Temp;Humidity;BMP_temperature;BMP_pressure;BME280_temperature;BME280_humidity;BME280_pressure;Samples;Min_cycle;Max_cycle;Signal;HPM_P1;HPM_P2
2021/10/21 00:02:04;;;;;;;;;2.00;2.00;;;;;;;;5106449;28;9560;-78
2021/10/21 00:04:29;;;;;;;;;3.00;1.00;;;;;;;;5106078;28;8894;-78
2021/10/21 00:06:55;;;;;;;;;2.00;1.00;;;;;;;;5105906;28;8785;-78
2021/10/21 00:09:20;;;;;;;;;5.00;2.00;;;;;;;;5105771;28;8911;-76
2021/10/21 00:11:45;;;;;;;;;1.33;1.33;;;;;;;;5109022;28;8859;-77
2021/10/21 00:14:10;;;;;;;;;1.00;1.00;;;;;;;;5106957;28;8837;-77
2021/10/21 00:16:36;;;;;;;;;3.00;1.00;;;;;;;;5109045;28;8837;-77
2021/10/21 00:19:01;;;;;;;;;3.00;2.67;;;;;;;;5108496;28;8765;-76
2021/10/21 00:21:26;;;;;;;;;0.00;0.00;;;;;;;;5107531;28;8864;-76
2021/10/21 00:23:51;;;;;;;;;2.00;1.00;;;;;;;;5103968;28;8808;-76
2021/10/21 00:26:17;;;;;;;;;3.00;1.67;;;;;;;;5103235;28;8825;-79
2021/10/21 00:28:42;;;;;;;;;0.00;0.00;;;;;;;;5103852;28;8760;-79
2021/10/21 00:31:07;;;;;;;;;2.67;0.33;;;;;;;;5103456;28;8824;-79
2021/10/21 00:33:33;;;;;;;;;0.00;0.00;;;;;;;;5105904;28;8801;-79
2021/10/21 00:35:58;;;;;;;;;3.00;0.00;;;;;;;;5103436;28;8837;-79
2021/10/21 00:38:23;;;;;;;;;3.00;1.33;;;;;;;;5105684;28;9672;-78
2021/10/21 00:40:49;;;;;;;;;3.33;0.33;;;;;;;;5105991;28;8774;-76
2021/10/21 00:43:14;;;;;;;;;3.33;2.00;;;;;;;;5103852;28;8830;-77
2021/10/21 00:45:39;;;;;;;;;2.00;0.67;;;;;;;;5108104;28;8848;-77
2021/10/21 00:48:04;;;;;;;;;2.00;2.00;;;;;;;;5105641;28;8828;-77
2021/10/21 00:50:31;;;;;;;;;4.00;0.33;;;;;;;;5101959;28;8798;-76
2021/10/21 00:52:57;;;;;;;;;0.25;0.00;;;;;;;;5103525;28;8826;-77
2021/10/21 00:55:23;;;;;;;;;2.00;1.67;;;;;;;;5103648;28;8927;-77
2021/10/21 00:57:48;;;;;;;;;2.75;1.00;;;;;;;;5104770;28;8813;-79
2021/10/21 01:00:14;;;;;;;;;1.00;1.00;;;;;;;;5103737;28;8860;-79
2021/10/21 01:02:39;;;;;;;;;1.33;1.33;;;;;;;;5103025;28;8844;-79
2021/10/21 01:05:05;;;;;;;;;2.00;1.00;;;;;;;;5102156;28;8829;-79
2021/10/21 01:07:30;;;;;;;;;0.00;0.00;;;;;;;;5102951;28;8793;-80
2021/10/21 01:09:56;;;;;;;;;0.67;0.00;;;;;;;;5105090;28;8792;-76
2021/10/21 01:12:21;;;;;;;;;2.00;1.00;;;;;;;;5110416;28;8797;-77
2021/10/21 01:14:46;;;;;;;;;2.00;0.00;;;;;;;;5109148;28;8848;-77
2021/10/21 01:17:15;;;;;;;;;0.00;0.00;;;;;;;;5107929;28;8848;-78
2021/10/21 01:19:41;;;;;;;;;1.00;1.00;;;;;;;;5110156;28;8758;-76
2021/10/21 01:22:06;;;;;;;;;2.00;0.00;;;;;;;;5111251;28;8794;-76
2021/10/21 01:24:31;;;;;;;;;0.00;0.00;;;;;;;;5108124;28;8817;-76
2021/10/21 01:26:56;;;;;;;;;0.00;0.00;;;;;;;;5109221;28;8838;-78
2021/10/21 01:29:23;;;;;;;;;0.00;0.00;;;;;;;;5105639;28;8843;-78
2021/10/21 01:31:49;;;;;;;;;0.00;0.00;;;;;;;;5107834;28;8802;-79
2021/10/21 01:34:15;;;;;;;;;0.00;0.00;;;;;;;;5103598;28;8822;-79
2021/10/21 01:36:41;;;;;;;;;0.00;0.00;;;;;;;;5102969;28;8825;-77
2021/10/21 01:39:08;;;;;;;;;1.00;1.00;;;;;;;;5098824;28;8832;-79
2021/10/21 01:41:34;;;;;;;;;1.00;0.00;;;;;;;;5110960;28;8770;-76
2021/10/21 01:43:59;;;;;;;;;0.00;0.00;;;;;;;;5112551;28;8768;-77
2021/10/21 01:46:24;;;;;;;;;0.33;0.00;;;;;;;;5113642;28;8802;-77
2021/10/21 01:48:50;;;;;;;;;0.00;0.00;;;;;;;;5113524;28;8828;-78
2021/10/21 01:51:15;;;;;;;;;0.00;0.00;;;;;;;;5113713;28;8758;-76
2021/10/21 01:53:40;;;;;;;;;0.00;0.00;;;;;;;;5112028;28;8828;-76
2021/10/21 01:56:06;;;;;;;;;1.00;0.00;;;;;;;;5112792;28;8829;-78
2021/10/21 01:58:31;;;;;;;;;0.00;0.00;;;;;;;;5114373;28;8790;-78
2021/10/21 02:00:57;;;;;;;;;0.00;0.00;;;;;;;;5111108;28;8903;-77
2021/10/21 02:03:22;;;;;;;;;0.00;0.00;;;;;;;;5113258;28;8773;-76
2021/10/21 02:05:47;;;;;;;;;0.00;0.00;;;;;;;;5113078;28;8781;-76
2021/10/21 02:08:12;;;;;;;;;0.00;0.00;;;;;;;;5112335;28;8822;-76
2021/10/21 02:10:38;;;;;;;;;0.00;0.00;;;;;;;;5112511;28;8789;-78
2021/10/21 02:13:03;;;;;;;;;0.00;0.00;;;;;;;;5115479;28;8801;-77
2021/10/21 02:15:29;;;;;;;;;0.00;0.00;;;;;;;;5113028;28;8845;-77
2021/10/21 02:17:54;;;;;;;;;0.00;0.00;;;;;;;;5112000;28;8810;-76
2021/10/21 02:20:19;;;;;;;;;0.00;0.00;;;;;;;;5110758;28;8841;-77
2021/10/21 02:22:49;;;;;;;;;0.00;0.00;;;;;;;;5112351;28;9557;-76
2021/10/21 02:25:15;;;;;;;;;0.00;0.00;;;;;;;;5111676;28;8794;-78
2021/10/21 02:27:40;;;;;;;;;0.00;0.00;;;;;;;;5112198;28;8876;-77
2021/10/21 02:30:06;;;;;;;;;0.00;0.00;;;;;;;;5113918;28;8730;-77
2021/10/21 02:32:31;;;;;;;;;0.00;0.00;;;;;;;;5113248;28;8824;-75
2021/10/21 02:34:57;;;;;;;;;0.00;0.00;;;;;;;;5114095;28;8774;-76
2021/10/21 02:37:22;;;;;;;;;0.00;0.00;;;;;;;;5114523;28;8794;-76
2021/10/21 02:39:47;;;;;;;;;0.00;0.00;;;;;;;;5113871;28;8895;-76
2021/10/21 02:42:13;;;;;;;;;0.00;0.00;;;;;;;;5109636;28;8876;-78
2021/10/21 02:44:38;;;;;;;;;0.00;0.00;;;;;;;;5098476;28;8821;-79
2021/10/21 02:47:03;;;;;;;;;0.00;0.00;;;;;;;;5099125;28;8790;-79
2021/10/21 02:49:28;;;;;;;;;0.00;0.00;;;;;;;;5098239;28;8816;-79
2021/10/21 02:51:54;;;;;;;;;0.00;0.00;;;;;;;;5096653;28;8839;-77
2021/10/21 02:54:19;;;;;;;;;0.00;0.00;;;;;;;;5098774;28;8849;-79
2021/10/21 02:56:44;;;;;;;;;0.00;0.00;;;;;;;;5104236;28;8818;-76
2021/10/21 02:59:09;;;;;;;;;0.00;0.00;;;;;;;;5109411;28;8891;-78
2021/10/21 03:01:35;;;;;;;;;0.00;0.00;;;;;;;;5108008;28;8809;-77
2021/10/21 03:04:00;;;;;;;;;0.00;0.00;;;;;;;;5102156;28;8827;-79
2021/10/21 03:06:25;;;;;;;;;0.00;0.00;;;;;;;;5104046;28;8802;-79
2021/10/21 03:08:51;;;;;;;;;0.00;0.00;;;;;;;;5105440;28;8892;-78
2021/10/21 03:11:16;;;;;;;;;0.00;0.00;;;;;;;;5106099;28;8820;-79
2021/10/21 03:13:41;;;;;;;;;0.00;0.00;;;;;;;;5101919;28;8793;-79
2021/10/21 03:16:06;;;;;;;;;0.00;0.00;;;;;;;;5098063;28;8844;-79
2021/10/21 03:18:31;;;;;;;;;0.00;0.00;;;;;;;;5097144;28;8806;-78
2021/10/21 03:20:57;;;;;;;;;0.00;0.00;;;;;;;;5097133;28;8828;-77
2021/10/21 03:23:25;;;;;;;;;0.00;0.00;;;;;;;;5096884;28;8826;-79
2021/10/21 03:25:50;;;;;;;;;0.00;0.00;;;;;;;;5099043;28;8909;-79
2021/10/21 03:28:15;;;;;;;;;0.00;0.00;;;;;;;;5104755;28;8789;-78
2021/10/21 03:30:42;;;;;;;;;0.00;0.00;;;;;;;;5116109;28;8896;-78
2021/10/21 03:33:07;;;;;;;;;1.00;0.00;;;;;;;;5124235;28;9574;-77
2021/10/21 03:35:32;;;;;;;;;0.00;0.00;;;;;;;;5125713;28;8887;-77
2021/10/21 03:37:58;;;;;;;;;0.00;0.00;;;;;;;;5125552;27;8899;-78
2021/10/21 03:40:23;;;;;;;;;0.00;0.00;;;;;;;;5124196;27;8911;-76
2021/10/21 03:42:48;;;;;;;;;0.00;0.00;;;;;;;;5122685;27;8783;-77
2021/10/21 03:45:13;;;;;;;;;0.00;0.00;;;;;;;;5119324;27;8875;-77
2021/10/21 03:47:39;;;;;;;;;0.00;0.00;;;;;;;;5118424;27;8783;-78
2021/10/21 03:50:04;;;;;;;;;0.00;0.00;;;;;;;;5115617;28;8819;-78
2021/10/21 03:52:29;;;;;;;;;0.00;0.00;;;;;;;;5116627;27;8784;-79
2021/10/21 03:54:54;;;;;;;;;0.00;0.00;;;;;;;;5116883;27;8840;-79
2021/10/21 03:57:20;;;;;;;;;0.00;0.00;;;;;;;;5116847;27;8834;-78
2021/10/21 03:59:45;;;;;;;;;0.67;0.33;;;;;;;;5117405;27;8779;-76
2021/10/21 04:02:10;;;;;;;;;0.33;0.00;;;;;;;;5117473;27;9570;-77
2021/10/21 04:04:36;;;;;;;;;1.33;0.00;;;;;;;;5121515;27;8787;-76
2021/10/21 04:07:01;;;;;;;;;0.33;0.33;;;;;;;;5119505;28;8806;-76
2021/10/21 04:09:26;;;;;;;;;0.00;0.00;;;;;;;;5120246;27;8806;-76
2021/10/21 04:11:51;;;;;;;;;0.33;0.33;;;;;;;;5103927;27;8845;-77
2021/10/21 04:14:17;;;;;;;;;1.00;0.33;;;;;;;;5099687;28;8860;-76
2021/10/21 04:16:42;;;;;;;;;0.33;0.00;;;;;;;;5097541;28;8846;-77
2021/10/21 04:19:07;;;;;;;;;0.00;0.00;;;;;;;;5093920;28;8914;-79
2021/10/21 04:21:33;;;;;;;;;0.00;0.00;;;;;;;;5095991;28;8810;-78
2021/10/21 04:23:58;;;;;;;;;1.00;0.00;;;;;;;;5095961;28;8790;-78
2021/10/21 04:26:23;;;;;;;;;1.67;0.00;;;;;;;;5095861;28;9604;-79
2021/10/21 04:28:49;;;;;;;;;1.00;1.00;;;;;;;;5096583;28;8797;-78
2021/10/21 04:31:14;;;;;;;;;2.00;0.33;;;;;;;;5112090;28;8803;-79
2021/10/21 04:33:40;;;;;;;;;0.00;0.00;;;;;;;;5116358;27;8799;-78
2021/10/21 04:36:05;;;;;;;;;0.00;0.00;;;;;;;;5116632;27;8847;-78
2021/10/21 04:38:30;;;;;;;;;0.00;0.00;;;;;;;;5113154;28;8916;-80
2021/10/21 04:40:56;;;;;;;;;2.00;0.00;;;;;;;;5095647;28;8873;-77
2021/10/21 04:43:21;;;;;;;;;0.00;0.00;;;;;;;;5108172;28;8882;-79
2021/10/21 04:45:46;;;;;;;;;2.00;0.00;;;;;;;;5119912;28;8806;-79
2021/10/21 04:48:12;;;;;;;;;2.33;1.00;;;;;;;;5122591;28;8787;-80
2021/10/21 04:50:37;;;;;;;;;0.00;0.00;;;;;;;;5122948;28;8814;-81
2021/10/21 04:53:02;;;;;;;;;1.33;1.33;;;;;;;;5102790;28;8806;-80
2021/10/21 04:55:28;;;;;;;;;1.00;0.00;;;;;;;;5105058;28;9568;-79
2021/10/21 04:57:53;;;;;;;;;1.00;0.00;;;;;;;;5103391;28;8778;-78
2021/10/21 05:00:19;;;;;;;;;1.00;1.00;;;;;;;;5102077;28;8823;-81
2021/10/21 05:02:45;;;;;;;;;0.67;0.67;;;;;;;;5097481;28;8813;-83
2021/10/21 05:05:11;;;;;;;;;0.00;0.00;;;;;;;;5098105;28;8837;-80
2021/10/21 05:07:36;;;;;;;;;1.00;0.00;;;;;;;;5102170;28;8778;-82
2021/10/21 05:10:02;;;;;;;;;0.00;0.00;;;;;;;;5099214;28;8902;-81
2021/10/21 05:12:27;;;;;;;;;1.50;0.75;;;;;;;;5101169;28;8871;-81
2021/10/21 05:14:53;;;;;;;;;1.00;0.00;;;;;;;;5099964;28;8833;-79
2021/10/21 05:17:18;;;;;;;;;2.00;2.00;;;;;;;;5104254;28;8809;-77
2021/10/21 05:19:44;;;;;;;;;0.33;0.33;;;;;;;;5112297;28;8804;-78
2021/10/21 05:22:09;;;;;;;;;1.67;1.00;;;;;;;;5104577;28;8843;-77
2021/10/21 05:24:34;;;;;;;;;0.00;0.00;;;;;;;;5100738;28;8798;-78
2021/10/21 05:26:59;;;;;;;;;0.33;0.33;;;;;;;;5107942;28;8824;-78
2021/10/21 05:29:26;;;;;;;;;1.00;1.00;;;;;;;;5103369;28;8797;-76
2021/10/21 05:31:51;;;;;;;;;2.75;0.50;;;;;;;;5118611;27;8775;-76
2021/10/21 05:34:16;;;;;;;;;2.00;1.33;;;;;;;;5119073;27;8893;-76
2021/10/21 05:36:42;;;;;;;;;1.00;0.00;;;;;;;;5118989;27;8806;-76
2021/10/21 05:39:07;;;;;;;;;2.33;2.33;;;;;;;;5119134;27;8767;-77
2021/10/21 05:41:32;;;;;;;;;0.00;0.00;;;;;;;;5121518;27;8813;-78
2021/10/21 05:43:58;;;;;;;;;3.33;0.33;;;;;;;;5122069;28;8829;-78
2021/10/21 05:46:23;;;;;;;;;0.33;0.33;;;;;;;;5121839;27;8811;-77
2021/10/21 05:48:48;;;;;;;;;2.67;1.33;;;;;;;;5122258;27;8802;-80
2021/10/21 05:51:14;;;;;;;;;0.33;0.33;;;;;;;;5113596;27;8821;-80
2021/10/21 05:53:39;;;;;;;;;0.33;0.33;;;;;;;;5119079;28;8878;-78
2021/10/21 05:56:04;;;;;;;;;0.33;0.33;;;;;;;;5117813;28;8889;-79
2021/10/21 05:58:29;;;;;;;;;2.00;1.33;;;;;;;;5118650;28;9580;-78
2021/10/21 06:00:55;;;;;;;;;1.00;1.00;;;;;;;;5121626;28;8775;-77
2021/10/21 06:03:20;;;;;;;;;1.67;0.00;;;;;;;;5122980;28;8818;-76
2021/10/21 06:05:45;;;;;;;;;0.67;0.00;;;;;;;;5124335;28;8795;-77
2021/10/21 06:08:11;;;;;;;;;3.33;1.33;;;;;;;;5124001;28;8818;-76
2021/10/21 06:10:36;;;;;;;;;2.00;2.00;;;;;;;;5120017;28;8795;-77
2021/10/21 06:13:01;;;;;;;;;3.33;1.67;;;;;;;;5120635;28;8818;-76
2021/10/21 06:15:27;;;;;;;;;0.33;0.33;;;;;;;;5121525;28;8865;-76
2021/10/21 06:17:54;;;;;;;;;0.33;0.33;;;;;;;;5120106;28;8788;-77
2021/10/21 06:20:20;;;;;;;;;1.00;1.00;;;;;;;;5118562;28;8775;-80
2021/10/21 06:22:45;;;;;;;;;2.33;1.33;;;;;;;;5118132;28;8776;-80
2021/10/21 06:25:12;;;;;;;;;1.33;1.33;;;;;;;;5118221;28;8827;-77
2021/10/21 06:27:38;;;;;;;;;0.75;0.75;;;;;;;;5118165;28;8771;-78
2021/10/21 06:30:04;;;;;;;;;1.00;0.33;;;;;;;;5116669;27;8803;-76
2021/10/21 06:32:30;;;;;;;;;3.67;2.67;;;;;;;;5117952;27;8786;-78
2021/10/21 06:34:55;;;;;;;;;4.33;3.00;;;;;;;;5117560;27;11485;-76
2021/10/21 06:37:20;;;;;;;;;3.67;2.33;;;;;;;;5116843;28;8846;-77
2021/10/21 06:39:53;;;;;;;;;3.00;2.33;;;;;;;;5118103;27;8810;-75
2021/10/21 06:42:18;;;;;;;;;3.00;3.00;;;;;;;;5117975;27;8786;-77
2021/10/21 06:44:43;;;;;;;;;4.00;2.00;;;;;;;;5118216;27;8819;-76
2021/10/21 06:47:09;;;;;;;;;1.33;1.33;;;;;;;;5118318;27;8803;-75
2021/10/21 06:49:34;;;;;;;;;1.67;1.67;;;;;;;;5118314;27;8864;-77
2021/10/21 06:51:59;;;;;;;;;3.33;2.33;;;;;;;;5115583;28;8799;-75
2021/10/21 06:54:24;;;;;;;;;4.00;2.00;;;;;;;;5117826;28;8845;-79
2021/10/21 06:56:50;;;;;;;;;2.00;2.00;;;;;;;;5118309;28;8891;-76
2021/10/21 06:59:15;;;;;;;;;4.00;3.00;;;;;;;;5117566;28;8771;-78
2021/10/21 07:01:41;;;;;;;;;3.00;3.00;;;;;;;;5116977;28;8807;-80
2021/10/21 07:04:06;;;;;;;;;2.33;2.33;;;;;;;;5117903;28;8791;-77
2021/10/21 07:06:31;;;;;;;;;4.33;2.00;;;;;;;;5117479;28;8872;-78
2021/10/21 07:08:57;;;;;;;;;3.00;3.00;;;;;;;;5117482;28;9538;-79
2021/10/21 07:11:22;;;;;;;;;3.33;3.33;;;;;;;;5115658;28;9542;-79
2021/10/21 07:13:48;;;;;;;;;1.67;1.33;;;;;;;;5120443;28;8925;-76
2021/10/21 07:16:13;;;;;;;;;1.33;1.33;;;;;;;;5120607;28;8845;-79
2021/10/21 07:18:38;;;;;;;;;5.67;4.00;;;;;;;;5118455;28;8839;-77
2021/10/21 07:21:04;;;;;;;;;2.67;1.00;;;;;;;;5118418;28;8783;-76
2021/10/21 07:23:29;;;;;;;;;4.33;1.67;;;;;;;;5118288;28;8880;-78
2021/10/21 07:25:54;;;;;;;;;7.33;3.33;;;;;;;;5116688;28;8833;-77
2021/10/21 07:28:21;;;;;;;;;1.67;1.67;;;;;;;;5117460;28;8800;-78
2021/10/21 07:30:47;;;;;;;;;6.00;2.25;;;;;;;;5117485;28;8799;-78
2021/10/21 07:33:12;;;;;;;;;3.00;1.00;;;;;;;;5117475;27;8775;-78
2021/10/21 07:35:37;;;;;;;;;2.00;2.00;;;;;;;;5116123;28;8834;-78
2021/10/21 07:38:03;;;;;;;;;4.33;2.00;;;;;;;;5117786;27;8768;-77
2021/10/21 07:40:28;;;;;;;;;4.33;4.00;;;;;;;;5118300;27;8817;-77
2021/10/21 07:42:54;;;;;;;;;3.00;2.67;;;;;;;;5118766;27;8803;-78
2021/10/21 07:45:19;;;;;;;;;2.33;1.33;;;;;;;;5117844;27;8795;-78
2021/10/21 07:47:44;;;;;;;;;2.33;2.33;;;;;;;;5118074;27;8873;-79
2021/10/21 07:50:10;;;;;;;;;4.00;2.00;;;;;;;;5115032;28;8917;-79
2021/10/21 07:52:37;;;;;;;;;1.33;0.67;;;;;;;;5118055;27;8787;-79
2021/10/21 07:55:04;;;;;;;;;3.50;3.50;;;;;;;;5119110;27;8850;-79
2021/10/21 07:57:30;;;;;;;;;4.00;2.00;;;;;;;;5117002;28;8772;-79
2021/10/21 07:59:55;;;;;;;;;5.00;3.75;;;;;;;;5116303;28;8795;-80
2021/10/21 08:02:20;;;;;;;;;6.00;5.33;;;;;;;;5117101;27;8813;-80
2021/10/21 08:04:46;;;;;;;;;4.67;4.00;;;;;;;;5099729;28;8825;-79
2021/10/21 08:07:11;;;;;;;;;2.67;2.67;;;;;;;;5101101;28;8814;-79
2021/10/21 08:09:36;;;;;;;;;5.00;5.00;;;;;;;;5100485;28;8811;-79
2021/10/21 08:12:03;;;;;;;;;2.67;1.33;;;;;;;;5100570;28;8820;-78
2021/10/21 08:14:29;;;;;;;;;4.00;3.50;;;;;;;;5098047;28;8830;-78
2021/10/21 08:16:55;;;;;;;;;2.00;2.00;;;;;;;;5100711;28;8801;-77
2021/10/21 08:19:21;;;;;;;;;1.67;1.67;;;;;;;;5100699;28;8805;-77
2021/10/21 08:21:47;;;;;;;;;3.33;1.33;;;;;;;;5100847;28;8882;-78
2021/10/21 08:24:13;;;;;;;;;0.25;0.25;;;;;;;;5102605;28;8824;-77
2021/10/21 08:26:38;;;;;;;;;2.00;2.00;;;;;;;;5104759;28;8797;-79
2021/10/21 08:29:03;;;;;;;;;3.00;3.00;;;;;;;;5099861;28;8821;-79
2021/10/21 08:31:28;;;;;;;;;2.33;2.00;;;;;;;;5117287;28;8830;-79
2021/10/21 08:33:54;;;;;;;;;2.67;2.33;;;;;;;;5122002;27;8798;-80
2021/10/21 08:36:20;;;;;;;;;5.33;4.33;;;;;;;;5120148;27;8782;-79
2021/10/21 08:38:46;;;;;;;;;6.00;4.25;;;;;;;;5120271;27;8767;-80
2021/10/21 08:41:11;;;;;;;;;3.33;2.33;;;;;;;;5118775;28;8882;-80
2021/10/21 08:43:37;;;;;;;;;1.00;1.00;;;;;;;;5123513;27;8779;-79
2021/10/21 08:46:03;;;;;;;;;2.67;2.67;;;;;;;;5128698;27;8807;-78
2021/10/21 08:48:33;;;;;;;;;2.67;2.33;;;;;;;;5128367;28;8802;-78
2021/10/21 08:51:00;;;;;;;;;4.00;3.50;;;;;;;;5129705;27;8791;-77
2021/10/21 08:53:26;;;;;;;;;3.75;2.75;;;;;;;;5126460;28;8790;-78
2021/10/21 08:55:52;;;;;;;;;6.33;4.67;;;;;;;;5128039;27;8843;-77
2021/10/21 08:58:17;;;;;;;;;2.00;1.75;;;;;;;;5129060;27;8712;-77
2021/10/21 09:00:42;;;;;;;;;4.33;3.00;;;;;;;;5126344;28;9627;-78
2021/10/21 09:03:15;;;;;;;;;2.00;1.00;;;;;;;;5121572;28;8819;-79
2021/10/21 09:06:04;;;;;;;;;2.50;2.50;;;;;;;;5120634;27;9745;-75
2021/10/21 09:08:25;;;;;;;;;3.50;3.00;;;;;;;;5119786;28;8814;-76
2021/10/21 09:10:56;;;;;;;;;3.33;3.00;;;;;;;;5118292;28;8839;-77
2021/10/21 09:13:34;;;;;;;;;2.75;2.00;;;;;;;;5119991;27;8700;-77
2021/10/21 09:16:00;;;;;;;;;2.25;1.00;;;;;;;;5118160;27;8772;-76
2021/10/21 09:18:45;;;;;;;;;2.25;1.75;;;;;;;;5119408;28;8771;-79
2021/10/21 09:21:30;;;;;;;;;2.25;2.00;;;;;;;;5124069;28;8743;-77
2021/10/21 09:23:55;;;;;;;;;3.50;2.50;;;;;;;;5122503;27;8822;-80
2021/10/21 09:26:22;;;;;;;;;6.00;3.00;;;;;;;;5120225;28;8795;-77
2021/10/21 09:28:47;;;;;;;;;2.00;2.00;;;;;;;;5124613;27;8781;-77
2021/10/21 09:31:14;;;;;;;;;2.33;1.00;;;;;;;;5122341;27;8794;-77
2021/10/21 09:33:44;;;;;;;;;3.50;2.00;;;;;;;;5123572;27;8779;-79
2021/10/21 09:36:09;;;;;;;;;2.50;1.50;;;;;;;;5122219;27;8791;-80
2021/10/21 09:38:34;;;;;;;;;2.33;1.33;;;;;;;;5126794;27;8874;-79
2021/10/21 09:41:19;;;;;;;;;3.00;2.00;;;;;;;;5128506;28;8811;-78
2021/10/21 09:43:44;;;;;;;;;5.75;1.50;;;;;;;;5127111;28;8732;-79
2021/10/21 09:46:28;;;;;;;;;1.00;1.00;;;;;;;;5122832;28;8830;-80
2021/10/21 09:49:12;;;;;;;;;5.50;3.50;;;;;;;;5124436;27;8799;-79
2021/10/21 09:51:38;;;;;;;;;3.50;2.00;;;;;;;;5122511;28;8833;-77
2021/10/21 09:54:03;;;;;;;;;4.00;2.33;;;;;;;;5124902;27;8799;-79
2021/10/21 09:56:29;;;;;;;;;1.00;1.00;;;;;;;;5126228;27;8787;-78
2021/10/21 09:59:04;;;;;;;;;4.00;2.33;;;;;;;;5121520;27;8783;-78
2021/10/21 10:01:33;;;;;;;;;2.50;2.50;;;;;;;;5120492;27;8821;-77
2021/10/21 10:03:59;;;;;;;;;3.00;1.00;;;;;;;;5118977;28;8727;-76
2021/10/21 10:06:24;;;;;;;;;1.33;1.33;;;;;;;;5120029;27;9523;-76
2021/10/21 10:08:49;;;;;;;;;1.00;1.00;;;;;;;;5118842;27;8878;-82
2021/10/21 10:11:21;;;;;;;;;3.67;1.67;;;;;;;;5116694;28;8811;-78
2021/10/21 10:13:49;;;;;;;;;0.25;0.25;;;;;;;;5117017;28;8854;-79
2021/10/21 10:16:15;;;;;;;;;1.00;1.00;;;;;;;;5118136;27;8802;-79
2021/10/21 10:18:42;;;;;;;;;0.50;0.25;;;;;;;;5118332;27;8789;-79
2021/10/21 10:21:10;;;;;;;;;1.75;1.75;;;;;;;;5118536;27;8875;-79
2021/10/21 10:23:38;;;;;;;;;2.25;2.25;;;;;;;;5118674;28;8791;-78
2021/10/21 10:26:03;;;;;;;;;0.75;0.00;;;;;;;;5118263;27;8787;-78
2021/10/21 10:28:48;;;;;;;;;3.67;3.00;;;;;;;;5116936;28;8901;-78
2021/10/21 10:31:33;;;;;;;;;0.00;0.00;;;;;;;;5101763;27;8832;-76
2021/10/21 10:33:58;;;;;;;;;2.25;2.00;;;;;;;;5097970;28;8798;-77
2021/10/21 10:36:26;;;;;;;;;2.33;2.00;;;;;;;;5097590;28;8858;-74
2021/10/21 10:38:51;;;;;;;;;4.25;2.75;;;;;;;;5097319;28;8898;-77
2021/10/21 10:41:36;;;;;;;;;4.33;3.00;;;;;;;;5097275;28;8898;-76
2021/10/21 10:44:01;;;;;;;;;2.50;1.00;;;;;;;;5097745;28;8805;-77
2021/10/21 10:46:45;;;;;;;;;5.00;3.00;;;;;;;;5097963;28;8821;-79
2021/10/21 10:49:13;;;;;;;;;3.50;1.00;;;;;;;;5100408;28;8790;-78
2021/10/21 10:51:58;;;;;;;;;3.75;3.25;;;;;;;;5099768;28;8789;-79
2021/10/21 10:54:42;;;;;;;;;1.75;1.00;;;;;;;;5096646;28;8836;-77
2021/10/21 10:57:07;;;;;;;;;0.50;0.50;;;;;;;;5097250;28;8823;-76
2021/10/21 10:59:33;;;;;;;;;1.00;1.00;;;;;;;;5097910;28;9589;-78
2021/10/21 11:02:00;;;;;;;;;2.00;0.75;;;;;;;;5099894;28;8757;-76
2021/10/21 11:04:54;;;;;;;;;1.00;0.00;;;;;;;;5098155;28;8782;-78
2021/10/21 11:07:25;;;;;;;;;4.25;2.75;;;;;;;;5096060;28;8789;-77
2021/10/21 11:09:51;;;;;;;;;1.00;0.25;;;;;;;;5099377;28;8809;-80
2021/10/21 11:12:23;;;;;;;;;0.00;0.00;;;;;;;;5098400;28;8778;-80
2021/10/21 11:14:55;;;;;;;;;2.00;2.00;;;;;;;;5098820;28;9502;-79
2021/10/21 11:17:39;;;;;;;;;0.75;0.75;;;;;;;;5098307;28;8723;-79
2021/10/21 11:20:04;;;;;;;;;2.75;2.75;;;;;;;;5096746;28;8734;-81
2021/10/21 11:22:37;;;;;;;;;0.33;0.00;;;;;;;;5097793;28;8786;-80
2021/10/21 11:25:04;;;;;;;;;0.00;0.00;;;;;;;;5098934;28;8793;-79
2021/10/21 11:27:31;;;;;;;;;0.50;0.50;;;;;;;;5096254;28;8786;-76
2021/10/21 11:30:03;;;;;;;;;1.25;1.25;;;;;;;;5101085;28;8807;-77
2021/10/21 11:32:33;;;;;;;;;2.25;1.75;;;;;;;;5117352;27;8809;-78
2021/10/21 11:34:59;;;;;;;;;1.00;1.00;;;;;;;;5117127;27;8803;-76
2021/10/21 11:37:35;;;;;;;;;1.00;0.67;;;;;;;;5115517;28;8929;-77
2021/10/21 11:40:02;;;;;;;;;0.75;0.75;;;;;;;;5116594;27;8727;-79
2021/10/21 11:42:28;;;;;;;;;1.50;0.50;;;;;;;;5117021;27;8794;-78
2021/10/21 11:45:01;;;;;;;;;1.25;1.00;;;;;;;;5117012;27;8736;-76
2021/10/21 11:47:27;;;;;;;;;1.00;1.00;;;;;;;;5117230;27;8767;-78
2021/10/21 11:49:55;;;;;;;;;2.00;1.50;;;;;;;;5108566;27;8774;-76
2021/10/21 11:52:20;;;;;;;;;2.00;1.75;;;;;;;;5103288;28;8819;-76
2021/10/21 11:54:46;;;;;;;;;2.00;1.00;;;;;;;;5095051;28;8845;-75
2021/10/21 11:57:11;;;;;;;;;4.00;3.00;;;;;;;;5101427;28;8795;-77
2021/10/21 11:59:40;;;;;;;;;2.00;2.00;;;;;;;;5104248;28;8810;-77
2021/10/21 12:02:10;;;;;;;;;3.25;1.00;;;;;;;;5103986;28;8771;-76
2021/10/21 12:04:36;;;;;;;;;2.25;2.25;;;;;;;;5093921;28;8857;-78
2021/10/21 12:07:01;;;;;;;;;2.67;2.00;;;;;;;;5103406;28;8794;-79
2021/10/21 12:09:26;;;;;;;;;3.00;2.00;;;;;;;;5104663;28;8849;-79
2021/10/21 12:12:15;;;;;;;;;2.00;2.00;;;;;;;;5099997;28;8817;-78
2021/10/21 12:14:47;;;;;;;;;5.00;3.00;;;;;;;;5093777;28;8957;-77
2021/10/21 12:17:12;;;;;;;;;1.25;1.25;;;;;;;;5105233;28;8802;-77
2021/10/21 12:19:39;;;;;;;;;2.00;2.00;;;;;;;;5094457;28;8901;-78
2021/10/21 12:22:14;;;;;;;;;4.00;2.50;;;;;;;;5096082;28;8782;-76
2021/10/21 12:24:42;;;;;;;;;3.25;2.00;;;;;;;;5093789;28;8921;-78
2021/10/21 12:27:07;;;;;;;;;3.25;1.00;;;;;;;;5095961;28;9773;-77
2021/10/21 12:29:42;;;;;;;;;3.00;3.00;;;;;;;;5097837;28;8813;-77
2021/10/21 12:32:09;;;;;;;;;1.25;1.25;;;;;;;;5110492;27;8888;-77
2021/10/21 12:34:35;;;;;;;;;3.25;2.00;;;;;;;;5095065;28;8809;-78
2021/10/21 12:37:07;;;;;;;;;2.00;2.00;;;;;;;;5112641;28;8841;-79
2021/10/21 12:39:32;;;;;;;;;2.75;2.75;;;;;;;;5116094;28;8751;-79
2021/10/21 12:41:59;;;;;;;;;1.33;1.33;;;;;;;;5116052;28;8790;-79
2021/10/21 12:44:26;;;;;;;;;3.00;3.00;;;;;;;;5115219;28;8884;-78
2021/10/21 12:47:12;;;;;;;;;6.00;3.00;;;;;;;;5116150;28;8817;-75
2021/10/21 12:49:37;;;;;;;;;6.25;4.00;;;;;;;;5116111;28;8779;-78
2021/10/21 12:52:06;;;;;;;;;4.00;4.00;;;;;;;;5115901;28;9554;-75
2021/10/21 12:54:32;;;;;;;;;5.75;4.75;;;;;;;;5115711;28;8798;-75
2021/10/21 12:56:58;;;;;;;;;5.67;4.33;;;;;;;;5114430;28;8791;-77
2021/10/21 12:59:24;;;;;;;;;4.75;4.00;;;;;;;;5115672;28;8890;-76
2021/10/21 13:01:53;;;;;;;;;5.00;3.67;;;;;;;;5114454;28;8980;-75
2021/10/21 13:04:37;;;;;;;;;5.00;5.00;;;;;;;;5117056;28;8720;-79
2021/10/21 13:07:03;;;;;;;;;5.50;4.75;;;;;;;;5118371;28;8796;-78
2021/10/21 13:09:31;;;;;;;;;6.33;4.67;;;;;;;;5119879;28;8802;-75
2021/10/21 13:11:57;;;;;;;;;4.00;4.00;;;;;;;;5117554;28;8768;-78
2021/10/21 13:14:22;;;;;;;;;5.00;5.00;;;;;;;;5119083;28;8779;-78
2021/10/21 13:16:47;;;;;;;;;4.33;4.33;;;;;;;;5119323;28;8806;-75
2021/10/21 13:19:13;;;;;;;;;8.00;5.33;;;;;;;;5119472;28;8779;-75
2021/10/21 13:21:38;;;;;;;;;2.67;2.67;;;;;;;;5119131;28;8846;-76
2021/10/21 13:24:03;;;;;;;;;5.00;3.33;;;;;;;;5119246;28;8787;-75
2021/10/21 13:26:28;;;;;;;;;3.00;3.00;;;;;;;;5119490;28;9582;-75
2021/10/21 13:28:53;;;;;;;;;2.00;2.00;;;;;;;;5118940;28;8807;-76
2021/10/21 13:31:19;;;;;;;;;5.00;5.00;;;;;;;;5118835;28;8787;-77
2021/10/21 13:33:44;;;;;;;;;2.00;2.00;;;;;;;;5119212;27;8798;-77
2021/10/21 13:36:09;;;;;;;;;5.33;4.00;;;;;;;;5119945;27;8807;-77
2021/10/21 13:38:34;;;;;;;;;4.00;3.00;;;;;;;;5118967;27;8783;-78
2021/10/21 13:41:00;;;;;;;;;1.67;1.67;;;;;;;;5118610;27;8820;-78
2021/10/21 13:43:25;;;;;;;;;3.00;2.67;;;;;;;;5117661;28;8902;-78
2021/10/21 13:45:50;;;;;;;;;5.67;4.00;;;;;;;;5118898;27;8883;-77
2021/10/21 13:48:16;;;;;;;;;4.00;3.00;;;;;;;;5118733;27;8779;-75
2021/10/21 13:50:41;;;;;;;;;5.00;4.00;;;;;;;;5118699;27;8807;-74
2021/10/21 13:53:09;;;;;;;;;2.00;2.00;;;;;;;;5118486;27;8822;-75
2021/10/21 13:55:35;;;;;;;;;3.00;3.00;;;;;;;;5118673;27;8787;-76
2021/10/21 13:58:02;;;;;;;;;2.25;2.00;;;;;;;;5119158;27;8755;-76
2021/10/21 14:00:28;;;;;;;;;3.00;3.00;;;;;;;;5118864;27;8859;-75
2021/10/21 14:02:53;;;;;;;;;3.33;3.00;;;;;;;;5117464;28;8815;-75
2021/10/21 14:05:18;;;;;;;;;4.00;3.33;;;;;;;;5122553;27;8880;-75
2021/10/21 14:07:43;;;;;;;;;4.00;2.00;;;;;;;;5128358;27;8779;-78
2021/10/21 14:10:09;;;;;;;;;3.00;2.00;;;;;;;;5123998;27;8779;-75
2021/10/21 14:12:34;;;;;;;;;1.33;1.00;;;;;;;;5121945;28;8834;-75
2021/10/21 14:14:59;;;;;;;;;0.00;0.00;;;;;;;;5118586;27;8823;-76
2021/10/21 14:17:25;;;;;;;;;1.00;1.00;;;;;;;;5117725;27;8923;-76
2021/10/21 14:19:51;;;;;;;;;3.33;2.00;;;;;;;;5118758;27;8807;-76
2021/10/21 14:22:17;;;;;;;;;1.50;1.25;;;;;;;;5116865;28;8791;-76
2021/10/21 14:24:42;;;;;;;;;1.00;1.00;;;;;;;;5118101;27;8869;-76
2021/10/21 14:27:10;;;;;;;;;1.00;1.00;;;;;;;;5119548;27;9595;-77
2021/10/21 14:29:36;;;;;;;;;3.00;2.00;;;;;;;;5115792;27;8906;-78
2021/10/21 14:32:01;;;;;;;;;0.00;0.00;;;;;;;;5098017;28;8782;-78
2021/10/21 14:34:26;;;;;;;;;1.00;1.00;;;;;;;;5097616;28;8901;-77
2021/10/21 14:36:52;;;;;;;;;0.00;0.00;;;;;;;;5098638;28;8832;-78
2021/10/21 14:39:17;;;;;;;;;1.33;1.00;;;;;;;;5096805;28;8832;-75
2021/10/21 14:41:43;;;;;;;;;1.67;1.00;;;;;;;;5097343;28;8796;-76
2021/10/21 14:44:08;;;;;;;;;1.00;1.00;;;;;;;;5097896;28;8790;-77
2021/10/21 14:46:34;;;;;;;;;0.00;0.00;;;;;;;;5098711;28;8824;-75
2021/10/21 14:48:59;;;;;;;;;1.00;1.00;;;;;;;;5098434;28;8789;-76
2021/10/21 14:51:25;;;;;;;;;1.00;1.00;;;;;;;;5096116;28;9564;-76
2021/10/21 14:53:50;;;;;;;;;2.67;1.00;;;;;;;;5097491;28;8820;-74